createdAt,value
2022-12-13T00:01:58.616Z,25.02
2022-12-13T00:04:27.038Z,25.35
2022-12-13T00:06:55.408Z,24.95
2022-12-13T00:09:25.962Z,24.00
2022-12-13T00:11:54.855Z,22.30
2022-12-13T00:14:23.123Z,24.35
2022-12-13T00:16:51.478Z,22.95
2022-12-13T00:19:20.037Z,23.73
2022-12-13T00:21:48.297Z,24.85
2022-12-13T00:24:16.581Z,23.52
2022-12-13T00:26:44.856Z,22.80
2022-12-13T00:29:13.288Z,23.75
2022-12-13T00:32:00.716Z,22.05
2022-12-13T00:34:30.057Z,23.98
2022-12-13T00:36:59.368Z,22.63
2022-12-13T00:39:28.265Z,24.02
2022-12-13T00:41:56.569Z,21.77
2022-12-13T00:44:25.279Z,24.38
2022-12-13T00:46:53.568Z,22.42
2022-12-13T00:49:21.843Z,22.42
2022-12-13T00:51:52.180Z,22.83
2022-12-13T00:54:20.581Z,22.52
2022-12-13T00:56:51.214Z,22.70
2022-12-13T00:59:19.589Z,23.88
2022-12-13T01:01:47.929Z,22.80
2022-12-13T01:04:16.511Z,24.40
2022-12-13T01:06:46.830Z,22.85
2022-12-13T01:09:20.676Z,22.10
2022-12-13T01:11:50.273Z,22.95
2022-12-13T01:14:18.978Z,21.60
2022-12-13T01:16:47.435Z,22.15
2022-12-13T01:19:16.182Z,22.63
2022-12-13T01:21:44.373Z,20.75
2022-12-13T01:24:12.521Z,21.35
2022-12-13T01:26:40.759Z,23.65
2022-12-13T01:29:12.896Z,21.30
2022-12-13T01:31:44.199Z,22.00
2022-12-13T01:34:13.270Z,19.25
2022-12-13T01:36:43.159Z,20.35
2022-12-13T01:39:15.355Z,20.75
2022-12-13T01:41:46.886Z,20.20
2022-12-13T01:44:52.497Z,20.70
2022-12-13T01:47:44.790Z,21.20
2022-12-13T01:50:23.017Z,21.23
2022-12-13T01:52:54.909Z,19.73
2022-12-13T01:55:27.762Z,20.05
2022-12-13T01:57:58.324Z,18.83
2022-12-13T02:00:27.773Z,18.88
2022-12-13T02:02:59.135Z,19.13
2022-12-13T02:05:39.386Z,18.35
2022-12-13T02:08:10.816Z,18.45
2022-12-13T02:10:39.930Z,18.92
2022-12-13T02:13:08.275Z,19.63
2022-12-13T02:15:47.773Z,21.13
2022-12-13T02:18:24.363Z,20.92
2022-12-13T02:21:16.518Z,19.95
2022-12-13T02:23:47.503Z,20.65
2022-12-13T02:26:33.771Z,20.77
2022-12-13T02:29:44.100Z,20.75
2022-12-13T02:32:42.389Z,19.27
2022-12-13T02:35:26.121Z,18.88
2022-12-13T02:38:24.329Z,19.92
2022-12-13T02:41:16.571Z,18.17
2022-12-13T02:43:54.091Z,19.20
2022-12-13T02:46:34.847Z,18.13
2022-12-13T02:49:05.500Z,19.45
2022-12-13T02:51:35.208Z,18.80
2022-12-13T02:54:04.609Z,18.20
2022-12-13T02:56:33.402Z,18.83
2022-12-13T02:59:07.800Z,16.75
2022-12-13T03:02:31.197Z,17.48
2022-12-13T03:05:33.348Z,15.98
2022-12-13T03:08:07.453Z,14.85
2022-12-13T03:11:04.731Z,15.05
2022-12-13T03:13:57.523Z,14.93
2022-12-13T03:16:37.361Z,15.77
2022-12-13T03:19:12.085Z,14.63
2022-12-13T03:21:47.620Z,14.70
2022-12-13T03:24:21.517Z,15.23
2022-12-13T03:29:23.439Z,13.60
2022-12-13T03:31:54.078Z,13.32
2022-12-13T03:34:23.775Z,14.32
2022-12-13T03:36:57.706Z,15.00
2022-12-13T03:39:29.361Z,15.35
2022-12-13T03:41:57.680Z,17.13
2022-12-13T03:44:31.564Z,16.90
2022-12-13T03:47:00.798Z,16.60
2022-12-13T03:49:35.398Z,16.80
2022-12-13T03:52:04.079Z,17.70
2022-12-13T03:54:32.370Z,16.67
2022-12-13T03:57:00.604Z,15.70
2022-12-13T03:59:31.721Z,14.77
2022-12-13T04:01:59.952Z,14.68
2022-12-13T04:04:28.307Z,16.90
2022-12-13T04:06:56.764Z,16.10
2022-12-13T04:09:25.101Z,14.80
2022-12-13T04:12:11.827Z,13.90
2022-12-13T04:14:40.045Z,13.02
2022-12-13T04:17:08.250Z,16.98
2022-12-13T04:19:36.502Z,18.23
2022-12-13T04:22:04.664Z,16.92
2022-12-13T04:24:32.843Z,15.10
2022-12-13T04:27:02.181Z,17.15
2022-12-13T04:29:34.174Z,17.30
2022-12-13T04:32:04.994Z,16.55
2022-12-13T04:34:37.763Z,17.30
2022-12-13T04:37:06.483Z,17.52
2022-12-13T04:39:34.855Z,17.05
2022-12-13T04:42:04.501Z,16.75
2022-12-13T04:44:36.914Z,16.83
2022-12-13T04:47:05.851Z,15.13
2022-12-13T04:49:34.726Z,13.35
2022-12-13T04:52:03.839Z,16.58
2022-12-13T04:54:36.222Z,16.10
2022-12-13T04:59:35.292Z,16.45
2022-12-13T05:02:04.898Z,16.95
2022-12-13T05:04:33.562Z,18.33
2022-12-13T05:07:02.836Z,18.13
2022-12-13T05:09:31.346Z,18.48
2022-12-13T05:12:00.845Z,18.38
2022-12-13T05:14:31.788Z,17.23
2022-12-13T05:17:01.726Z,16.38
2022-12-13T05:19:31.172Z,15.38
2022-12-13T05:22:01.693Z,16.08
2022-12-13T05:24:31.743Z,14.85
2022-12-13T05:27:00.536Z,15.30
2022-12-13T05:29:28.888Z,14.93
2022-12-13T05:31:57.180Z,15.27
2022-12-13T05:34:25.475Z,15.70
2022-12-13T05:36:53.698Z,14.35
2022-12-13T05:39:28.955Z,14.98
2022-12-13T05:42:01.372Z,14.00
2022-12-13T05:44:33.838Z,14.30
2022-12-13T05:47:02.620Z,14.63
2022-12-13T05:49:32.377Z,14.55
2022-12-13T05:52:03.462Z,14.93
2022-12-13T05:54:31.627Z,12.63
2022-12-13T05:56:59.883Z,13.00
2022-12-13T05:59:28.085Z,12.32
2022-12-13T06:01:56.432Z,12.90
2022-12-13T06:04:24.709Z,12.23
2022-12-13T06:06:53.376Z,13.50
2022-12-13T06:09:22.372Z,12.43
2022-12-13T06:11:51.015Z,12.65
2022-12-13T06:14:21.935Z,11.68
2022-12-13T06:16:52.630Z,11.02
2022-12-13T06:19:22.773Z,11.57
2022-12-13T06:21:52.788Z,11.85
2022-12-13T06:24:24.450Z,10.57
2022-12-13T06:26:56.501Z,11.48
2022-12-13T06:29:25.721Z,13.13
2022-12-13T06:32:02.915Z,11.52
2022-12-13T06:34:34.643Z,13.48
2022-12-13T06:37:10.578Z,13.20
2022-12-13T06:39:39.226Z,13.75
2022-12-13T06:42:14.429Z,11.98
2022-12-13T06:44:55.871Z,13.65
2022-12-13T06:47:31.821Z,13.02
2022-12-13T06:50:05.275Z,13.43
2022-12-13T06:52:34.386Z,13.68
2022-12-13T06:55:02.840Z,12.43
2022-12-13T06:57:33.760Z,12.38
2022-12-13T07:00:03.620Z,12.23
2022-12-13T07:02:32.806Z,12.63
2022-12-13T07:05:01.133Z,11.70
2022-12-13T07:07:29.743Z,13.02
2022-12-13T07:09:57.946Z,12.05
2022-12-13T07:12:26.139Z,11.10
2022-12-13T07:14:55.167Z,11.73
2022-12-13T07:17:33.447Z,12.45
2022-12-13T07:20:08.454Z,11.85
2022-12-13T07:22:44.724Z,12.73
2022-12-13T07:25:27.926Z,11.55
2022-12-13T07:28:02.167Z,11.48
2022-12-13T07:30:40.949Z,11.63
2022-12-13T07:33:10.713Z,11.60
2022-12-13T07:35:39.555Z,10.30
2022-12-13T07:38:09.425Z,10.88
2022-12-13T07:40:40.353Z,9.88
2022-12-13T07:43:09.414Z,9.90
2022-12-13T07:45:37.672Z,10.90
2022-12-13T07:48:08.531Z,9.20
2022-12-13T07:50:37.900Z,9.65
2022-12-13T07:53:08.348Z,10.23
2022-12-13T07:55:37.705Z,10.43
2022-12-13T07:58:07.748Z,11.48
2022-12-13T08:00:40.529Z,9.50
2022-12-13T08:03:25.179Z,9.70
2022-12-13T08:06:06.954Z,8.60
2022-12-13T08:08:35.838Z,9.23
2022-12-13T08:11:06.934Z,9.35
2022-12-13T08:13:35.849Z,9.80
2022-12-13T08:16:28.158Z,9.82
2022-12-13T08:19:00.987Z,9.25
2022-12-13T08:22:01.367Z,8.48
2022-12-13T08:24:31.307Z,10.10
2022-12-13T08:27:03.031Z,10.23
2022-12-13T08:29:35.768Z,10.68
2022-12-13T08:32:07.107Z,11.18
2022-12-13T08:34:35.473Z,9.45
2022-12-13T08:37:04.521Z,10.80
2022-12-13T08:39:36.335Z,11.02
2022-12-13T08:42:18.935Z,10.95
2022-12-13T08:44:50.096Z,10.75
2022-12-13T08:47:25.844Z,10.90
2022-12-13T08:50:02.084Z,10.55
2022-12-13T08:52:39.897Z,9.02
2022-12-13T08:55:14.804Z,9.65
2022-12-13T08:57:44.304Z,11.95
2022-12-13T09:00:15.625Z,10.73
2022-12-13T09:02:44.697Z,10.52
2022-12-13T09:05:34.130Z,10.40
2022-12-13T09:08:04.372Z,9.25
2022-12-13T09:10:59.682Z,10.15
2022-12-13T09:13:32.707Z,9.98
2022-12-13T09:18:43.171Z,12.73
2022-12-13T09:21:13.883Z,13.32
2022-12-13T09:23:50.711Z,13.13
2022-12-13T09:26:18.918Z,11.30
2022-12-13T09:28:53.866Z,11.68
2022-12-13T09:31:22.191Z,11.25
2022-12-13T09:33:50.431Z,10.13
2022-12-13T09:36:21.159Z,10.93
2022-12-13T09:38:52.280Z,12.93
2022-12-13T09:41:44.226Z,11.55
2022-12-13T09:44:53.672Z,12.55
2022-12-13T09:47:37.817Z,11.68
2022-12-13T09:50:25.743Z,11.98
2022-12-13T09:53:00.072Z,11.20
2022-12-13T09:55:34.370Z,11.90
2022-12-13T09:58:08.218Z,12.95
2022-12-13T10:00:37.682Z,13.45
2022-12-13T10:03:12.953Z,11.80
2022-12-13T10:05:46.612Z,10.75
2022-12-13T10:08:24.260Z,10.48
2022-12-13T10:10:55.807Z,10.05
2022-12-13T10:14:05.894Z,11.02
2022-12-13T10:16:37.573Z,10.70
2022-12-13T10:19:30.233Z,10.20
2022-12-13T10:22:01.690Z,10.88
2022-12-13T10:24:48.161Z,11.07
2022-12-13T10:27:19.466Z,11.90
2022-12-13T10:29:59.548Z,12.57
2022-12-13T10:32:30.378Z,12.73
2022-12-13T10:35:24.469Z,12.13
2022-12-13T10:37:53.316Z,12.35
2022-12-13T10:40:36.739Z,12.80
2022-12-13T10:45:59.375Z,13.45
2022-12-13T10:48:47.828Z,12.82
2022-12-13T10:51:21.304Z,13.18
2022-12-13T10:53:55.148Z,12.23
2022-12-13T10:56:33.267Z,12.27
2022-12-13T10:59:34.986Z,13.55
2022-12-13T11:02:28.982Z,14.15
2022-12-13T11:04:58.335Z,13.77
2022-12-13T11:07:33.469Z,13.88
2022-12-13T11:10:25.150Z,13.63
2022-12-13T11:13:04.410Z,13.88
2022-12-13T11:15:37.123Z,12.98
2022-12-13T11:18:20.229Z,14.90
2022-12-13T11:23:31.833Z,14.63
2022-12-13T11:26:11.429Z,13.60
2022-12-13T11:28:58.218Z,13.45
2022-12-13T11:31:38.795Z,13.57
2022-12-13T11:34:10.129Z,13.82
2022-12-13T11:37:21.070Z,13.70
2022-12-13T11:40:01.216Z,14.60
2022-12-13T11:42:59.486Z,15.95
2022-12-13T11:45:39.285Z,15.15
2022-12-13T11:48:10.280Z,15.90
2022-12-13T11:50:46.433Z,16.70
2022-12-13T11:53:23.227Z,18.40
2022-12-13T11:56:00.956Z,18.88
2022-12-13T11:59:03.088Z,24.85
2022-12-13T12:04:33.584Z,19.85
2022-12-13T12:07:32.348Z,18.30
2022-12-13T12:10:18.961Z,16.30
2022-12-13T12:12:54.825Z,12.52
2022-12-13T12:15:29.369Z,15.13
2022-12-13T12:17:59.628Z,13.85
2022-12-13T12:20:57.378Z,13.38
2022-12-13T12:23:52.466Z,13.30
2022-12-13T12:26:34.588Z,12.82
2022-12-13T12:29:35.504Z,13.60
2022-12-13T12:32:43.093Z,12.93
2022-12-13T12:35:51.272Z,13.07
2022-12-13T12:38:19.407Z,12.13
2022-12-13T12:41:16.213Z,11.73
2022-12-13T12:43:48.657Z,12.02
2022-12-13T12:46:22.785Z,12.10
2022-12-13T12:49:24.917Z,12.70
2022-12-13T12:52:02.105Z,13.27
2022-12-13T12:55:14.251Z,11.98
2022-12-13T12:58:03.307Z,13.35
2022-12-13T13:00:52.570Z,13.18
2022-12-13T13:03:29.509Z,14.23
2022-12-13T13:06:15.961Z,13.13
2022-12-13T13:08:55.708Z,13.80
2022-12-13T13:11:26.557Z,13.52
2022-12-13T13:14:31.626Z,14.20
2022-12-13T13:17:20.550Z,14.23
2022-12-13T13:19:50.120Z,14.55
2022-12-13T13:22:53.777Z,15.68
2022-12-13T13:25:43.943Z,14.05
2022-12-13T13:28:22.897Z,13.57
2022-12-13T13:31:09.213Z,14.00
2022-12-13T13:33:57.862Z,12.85
2022-12-13T13:36:52.655Z,13.32
2022-12-13T13:39:53.025Z,12.93
2022-12-13T13:42:24.359Z,13.73
2022-12-13T13:44:55.515Z,12.80
2022-12-13T13:47:23.661Z,13.43
2022-12-13T13:50:12.925Z,12.00
2022-12-13T13:52:49.743Z,12.27
2022-12-13T13:55:44.992Z,11.52
2022-12-13T13:58:36.739Z,11.93
2022-12-13T14:01:58.240Z,11.23
2022-12-13T14:05:07.238Z,13.00
2022-12-13T14:07:47.197Z,12.27
2022-12-13T14:10:42.043Z,12.77
2022-12-13T14:14:22.371Z,12.57
2022-12-13T14:17:09.927Z,11.80
2022-12-13T14:20:16.105Z,10.73
2022-12-13T14:22:54.141Z,10.20
2022-12-13T14:25:52.216Z,11.52
2022-12-13T14:28:45.070Z,11.35
2022-12-13T14:31:26.367Z,11.32
2022-12-13T14:33:58.071Z,10.88
2022-12-13T14:36:35.590Z,11.38
2022-12-13T14:39:24.466Z,10.45
2022-12-13T14:41:57.464Z,11.18
2022-12-13T14:44:35.230Z,8.43
2022-12-13T14:47:06.058Z,10.43
2022-12-13T14:49:48.608Z,11.05
2022-12-13T14:52:33.568Z,11.57
2022-12-13T14:55:06.749Z,10.77
2022-12-13T15:00:23.930Z,12.27
2022-12-13T15:03:00.111Z,12.23
2022-12-13T15:05:50.542Z,11.73
2022-12-13T15:08:20.387Z,11.43
2022-12-13T15:10:57.434Z,11.45
2022-12-13T15:13:41.676Z,11.80
2022-12-13T15:16:25.650Z,11.63
2022-12-13T15:19:30.894Z,13.57
2022-12-13T15:22:13.657Z,12.35
2022-12-13T15:24:50.925Z,13.35
2022-12-13T15:27:33.928Z,11.85
2022-12-13T15:30:02.613Z,11.27
2022-12-13T15:32:30.909Z,11.05
2022-12-13T15:35:16.680Z,11.70
2022-12-13T15:37:47.088Z,11.57
2022-12-13T15:40:15.770Z,11.90
2022-12-13T15:42:47.493Z,12.38
2022-12-13T15:45:36.932Z,11.52
2022-12-13T15:48:06.008Z,12.52
2022-12-13T15:50:43.764Z,12.88
2022-12-13T15:53:29.348Z,14.85
2022-12-13T15:56:23.539Z,12.95
2022-12-13T15:58:54.707Z,12.00
2022-12-13T16:01:36.336Z,11.63
2022-12-13T16:04:08.177Z,11.95
2022-12-13T16:06:39.210Z,12.70
2022-12-13T16:09:18.886Z,11.77
2022-12-13T16:11:52.107Z,12.02
2022-12-13T16:17:13.513Z,11.90
2022-12-13T16:19:42.171Z,11.75
2022-12-13T16:22:10.609Z,12.20
2022-12-13T16:24:40.075Z,12.73
2022-12-13T16:27:10.298Z,12.60
2022-12-13T16:29:38.538Z,14.02
2022-12-13T16:32:08.028Z,11.73
2022-12-13T16:34:38.129Z,12.68
2022-12-13T16:37:25.200Z,12.23
2022-12-13T16:39:55.445Z,11.52
2022-12-13T16:42:26.274Z,11.93
2022-12-13T16:45:40.495Z,11.15
2022-12-13T16:47:49.515Z,11.82
2022-12-13T16:50:21.209Z,11.95
2022-12-13T16:52:49.730Z,12.25
2022-12-13T16:55:17.990Z,11.77
2022-12-13T16:58:00.709Z,11.55
2022-12-13T17:00:30.504Z,12.38
2022-12-13T17:03:00.051Z,13.65
2022-12-13T17:05:30.230Z,13.73
2022-12-13T17:07:58.478Z,12.82
2022-12-13T17:10:27.644Z,13.30
2022-12-13T17:12:55.867Z,13.02
2022-12-13T17:15:24.084Z,13.35
2022-12-13T17:17:52.365Z,12.18
2022-12-13T17:20:20.700Z,13.18
2022-12-13T17:22:49.505Z,11.60
2022-12-13T17:25:18.417Z,12.75
2022-12-13T17:27:46.762Z,12.68
2022-12-13T17:30:17.642Z,12.68
2022-12-13T17:32:46.397Z,11.85
2022-12-13T17:35:18.022Z,13.40
2022-12-13T17:37:46.545Z,13.70
2022-12-13T17:40:14.847Z,14.85
2022-12-13T17:42:42.986Z,13.77
2022-12-13T17:45:11.829Z,13.45
2022-12-13T17:47:40.164Z,13.32
2022-12-13T17:50:09.614Z,13.48
2022-12-13T17:52:39.513Z,14.85
2022-12-13T17:55:11.226Z,13.73
2022-12-13T17:57:43.235Z,15.02
2022-12-13T18:00:12.199Z,14.05
2022-12-13T18:02:55.460Z,14.38
2022-12-13T18:05:27.634Z,15.02
2022-12-13T18:07:56.110Z,13.65
2022-12-13T18:10:29.436Z,14.93
2022-12-13T18:13:01.316Z,13.35
2022-12-13T18:15:29.644Z,14.45
2022-12-13T18:18:13.953Z,13.70
2022-12-13T18:20:44.046Z,14.00
2022-12-13T18:23:12.652Z,14.15
2022-12-13T18:25:41.906Z,14.82
2022-12-13T18:28:10.591Z,14.85
2022-12-13T18:30:39.332Z,14.45
2022-12-13T18:33:07.796Z,14.80
2022-12-13T18:35:36.083Z,13.48
2022-12-13T18:38:04.557Z,14.57
2022-12-13T18:40:32.770Z,15.68
2022-12-13T18:43:01.069Z,15.93
2022-12-13T18:45:29.296Z,15.30
2022-12-13T18:47:57.520Z,14.68
2022-12-13T18:50:25.666Z,15.05
2022-12-13T18:52:54.045Z,14.10
2022-12-13T18:55:22.241Z,13.32
2022-12-13T18:58:09.357Z,13.35
2022-12-13T19:00:37.553Z,15.52
2022-12-13T19:03:05.932Z,14.43
2022-12-13T19:05:34.177Z,15.00
2022-12-13T19:08:02.515Z,15.85
2022-12-13T19:10:30.690Z,15.25
2022-12-13T19:12:58.823Z,15.68
2022-12-13T19:15:29.147Z,14.90
2022-12-13T19:17:58.572Z,14.65
2022-12-13T19:20:26.817Z,14.18
2022-12-13T19:22:55.156Z,13.90
2022-12-13T19:25:23.439Z,14.30
2022-12-13T19:27:56.673Z,13.70
2022-12-13T19:30:25.601Z,13.32
2022-12-13T19:32:54.422Z,14.27
2022-12-13T19:35:22.651Z,15.43
2022-12-13T19:37:50.877Z,15.35
2022-12-13T19:40:19.281Z,15.45
2022-12-13T19:42:47.600Z,15.18
2022-12-13T19:45:18.653Z,18.08
2022-12-13T19:47:48.497Z,20.92
2022-12-13T19:50:17.544Z,22.42
2022-12-13T19:52:45.742Z,17.85
2022-12-13T19:55:14.381Z,16.42
2022-12-13T19:57:42.615Z,15.20
2022-12-13T20:00:11.678Z,16.38
2022-12-13T20:02:39.922Z,16.48
2022-12-13T20:05:08.609Z,16.05
2022-12-13T20:07:37.087Z,16.45
2022-12-13T20:10:06.450Z,16.00
2022-12-13T20:12:40.492Z,17.33
2022-12-13T20:15:09.911Z,17.25
2022-12-13T20:17:38.167Z,16.63
2022-12-13T20:20:06.894Z,17.73
2022-12-13T20:22:35.146Z,16.80
2022-12-13T20:25:03.385Z,17.08
2022-12-13T20:27:31.617Z,15.88
2022-12-13T20:30:00.670Z,17.67
2022-12-13T20:32:32.099Z,17.80
2022-12-13T20:35:00.369Z,17.17
2022-12-13T20:37:28.712Z,16.10
2022-12-13T20:39:57.841Z,16.20
2022-12-13T20:42:26.114Z,16.50
2022-12-13T20:44:54.276Z,15.95
2022-12-13T20:47:22.451Z,18.42
2022-12-13T20:49:50.798Z,19.50
2022-12-13T20:52:19.100Z,16.67
2022-12-13T20:54:47.253Z,18.13
2022-12-13T20:57:15.655Z,18.08
2022-12-13T20:59:46.472Z,18.17
2022-12-13T21:02:14.868Z,18.85
2022-12-13T21:04:43.210Z,18.38
2022-12-13T21:07:11.475Z,19.58
2022-12-13T21:09:40.402Z,19.42
2022-12-13T21:12:10.645Z,20.63
2022-12-13T21:14:38.819Z,20.05
2022-12-13T21:17:09.926Z,21.10
2022-12-13T21:19:40.496Z,20.92
2022-12-13T21:22:08.936Z,20.75
2022-12-13T21:24:37.112Z,19.27
2022-12-13T21:27:06.789Z,20.98
2022-12-13T21:29:34.919Z,21.65
2022-12-13T21:32:03.522Z,21.17
2022-12-13T21:34:32.993Z,21.98
2022-12-13T21:37:01.145Z,20.25
2022-12-13T21:39:29.429Z,19.67
2022-12-13T21:41:58.199Z,22.20
2022-12-13T21:44:26.408Z,20.13
2022-12-13T21:49:48.691Z,20.15
2022-12-13T21:52:17.865Z,21.63
2022-12-13T21:54:46.085Z,22.30
2022-12-13T21:57:32.659Z,21.48
2022-12-13T22:00:00.849Z,22.25
2022-12-13T22:02:29.327Z,21.27
2022-12-13T22:04:59.524Z,22.50
2022-12-13T22:07:27.722Z,22.33
2022-12-13T22:09:57.429Z,21.48
2022-12-13T22:12:34.371Z,23.30
2022-12-13T22:15:04.627Z,23.30
2022-12-13T22:17:36.067Z,22.73
2022-12-13T22:20:07.154Z,23.17
2022-12-13T22:22:37.185Z,22.42
2022-12-13T22:25:08.082Z,22.60
2022-12-13T22:27:36.502Z,22.38
2022-12-13T22:30:05.169Z,22.98
2022-12-13T22:32:33.957Z,22.88
2022-12-13T22:35:02.380Z,23.45
2022-12-13T22:37:32.221Z,23.60
2022-12-13T22:40:00.440Z,23.30
2022-12-13T22:42:28.680Z,23.38
2022-12-13T22:44:56.817Z,24.65
2022-12-13T22:47:25.062Z,23.52
2022-12-13T22:49:53.228Z,22.60
2022-12-13T22:52:21.525Z,22.05
2022-12-13T22:54:51.725Z,21.75
2022-12-13T22:57:19.937Z,20.38
2022-12-13T22:59:48.107Z,21.73
2022-12-13T23:02:16.801Z,21.63
2022-12-13T23:04:45.055Z,20.45
2022-12-13T23:07:13.250Z,19.92
2022-12-13T23:09:41.438Z,21.13
2022-12-13T23:12:29.738Z,21.35
2022-12-13T23:14:57.912Z,21.33
2022-12-13T23:17:28.878Z,22.52
2022-12-13T23:19:57.141Z,21.20
2022-12-13T23:22:26.326Z,23.50
2022-12-13T23:24:54.704Z,22.42
2022-12-13T23:27:24.239Z,23.80
2022-12-13T23:29:52.596Z,23.77
2022-12-13T23:32:20.875Z,22.92
2022-12-13T23:34:49.081Z,21.83
2022-12-13T23:37:17.525Z,21.35
2022-12-13T23:39:45.755Z,22.13
2022-12-13T23:42:14.887Z,21.65
2022-12-13T23:44:43.013Z,25.52
2022-12-13T23:47:14.354Z,22.23
2022-12-13T23:49:42.583Z,22.35
2022-12-13T23:52:10.832Z,24.60
2022-12-13T23:54:39.064Z,23.13
2022-12-13T23:57:07.291Z,22.05
2022-12-13T23:59:35.976Z,23.00
